Time;durP1;ratioP1;P1;durP2;ratioP2;P2;SDS_P1;SDS_P2;PMS_P1;PMS_P2;Temp;Humidity;BMP_temperature;BMP_pressure;BME280_temperature;BME280_humidity;BME280_pressure;Samples;Min_cycle;Max_cycle;Signal;HPM_P1;HPM_P2
2022/05/01 00:00:00;;;;;;;;;;;21.60;40.00;;;;;;474775;249;2153;-39
2022/05/01 00:02:01;;;;;;;;;;;21.60;40.00;;;;;;474632;249;1061;-39
2022/05/01 00:04:03;;;;;;;;;;;21.60;40.00;;;;;;474844;249;1067;-40
2022/05/01 00:06:04;;;;;;;;;;;21.60;40.00;;;;;;474567;249;1200;-39
2022/05/01 00:08:06;;;;;;;;;;;21.60;40.00;;;;;;474679;249;1091;-39
2022/05/01 00:10:09;;;;;;;;;;;21.60;40.00;;;;;;474507;249;1084;-39
2022/05/01 00:12:09;;;;;;;;;;;21.60;40.00;;;;;;474421;251;2107;-39
2022/05/01 00:14:10;;;;;;;;;;;21.60;40.00;;;;;;474956;249;1251;-39
2022/05/01 00:16:11;;;;;;;;;;;21.60;40.00;;;;;;474982;249;1212;-39
2022/05/01 00:18:12;;;;;;;;;;;21.70;39.90;;;;;;474598;249;1076;-39
2022/05/01 00:20:15;;;;;;;;;;;21.60;40.00;;;;;;474909;249;2125;-39
2022/05/01 00:22:16;;;;;;;;;;;21.60;40.10;;;;;;474961;249;1306;-39
2022/05/01 00:24:17;;;;;;;;;;;21.60;40.00;;;;;;475007;249;1073;-39
2022/05/01 00:26:19;;;;;;;;;;;21.60;40.00;;;;;;474913;249;1158;-39
2022/05/01 00:28:20;;;;;;;;;;;21.60;40.00;;;;;;474990;249;1281;-39
2022/05/01 00:30:21;;;;;;;;;;;21.60;40.00;;;;;;474763;249;1179;-39
2022/05/01 00:32:22;;;;;;;;;;;21.70;40.00;;;;;;474541;249;1077;-40
2022/05/01 00:36:43;;;;;;;;;;;21.60;40.10;;;;;;474636;250;1008;-39
2022/05/01 00:38:45;;;;;;;;;;;21.60;40.10;;;;;;474563;249;1045;-39
2022/05/01 00:40:46;;;;;;;;;;;21.70;40.00;;;;;;474933;249;2114;-39
2022/05/01 00:42:47;;;;;;;;;;;21.60;40.00;;;;;;474957;249;1045;-39
2022/05/01 00:44:49;;;;;;;;;;;21.60;40.00;;;;;;474919;249;1312;-39
2022/05/01 00:46:50;;;;;;;;;;;21.60;40.10;;;;;;474984;249;1136;-39
2022/05/01 00:48:51;;;;;;;;;;;21.60;40.10;;;;;;475000;249;1080;-39
2022/05/01 00:50:53;;;;;;;;;;;21.60;40.10;;;;;;474993;249;1081;-39
2022/05/01 00:52:54;;;;;;;;;;;21.60;40.10;;;;;;475012;249;1046;-39
2022/05/01 00:54:55;;;;;;;;;;;21.60;40.10;;;;;;474669;249;1052;-39
2022/05/01 00:56:56;;;;;;;;;;;21.60;40.00;;;;;;474590;249;1062;-39
2022/05/01 00:58:58;;;;;;;;;;;21.60;40.00;;;;;;474514;249;1219;-39
2022/05/01 01:00:59;;;;;;;;;;;21.60;40.10;;;;;;474655;249;2149;-39
2022/05/01 01:03:00;;;;;;;;;;;21.60;40.20;;;;;;474539;249;1371;-39
2022/05/01 01:05:02;;;;;;;;;;;21.60;40.20;;;;;;474975;249;1137;-39
2022/05/01 01:07:04;;;;;;;;;;;21.60;40.10;;;;;;474917;249;1201;-39
2022/05/01 01:09:05;;;;;;;;;;;21.60;40.10;;;;;;475019;249;1938;-39
2022/05/01 01:11:06;;;;;;;;;;;21.60;40.10;;;;;;475031;249;1080;-39
2022/05/01 01:13:07;;;;;;;;;;;21.60;40.10;;;;;;474866;249;1173;-39
2022/05/01 01:15:09;;;;;;;;;;;21.50;40.20;;;;;;474946;249;1175;-40
2022/05/01 01:17:10;;;;;;;;;;;21.60;40.10;;;;;;474737;249;1325;-39
2022/05/01 01:19:12;;;;;;;;;;;21.60;40.10;;;;;;474508;249;1076;-39
2022/05/01 01:21:13;;;;;;;;;;;21.60;40.00;;;;;;474977;249;2122;-39
2022/05/01 01:23:14;;;;;;;;;;;21.60;40.00;;;;;;474593;249;1123;-39
2022/05/01 01:25:16;;;;;;;;;;;21.60;40.00;;;;;;474579;249;1351;-39
2022/05/01 01:27:17;;;;;;;;;;;21.60;40.20;;;;;;474998;249;1040;-39
2022/05/01 01:31:44;;;;;;;;;;;21.60;40.20;;;;;;474628;250;1180;-39
2022/05/01 01:33:45;;;;;;;;;;;21.60;40.20;;;;;;474972;249;1121;-39
2022/05/01 01:35:46;;;;;;;;;;;21.60;40.20;;;;;;474521;249;1096;-39
2022/05/01 01:37:48;;;;;;;;;;;21.60;40.20;;;;;;474989;249;1050;-39
2022/05/01 01:39:49;;;;;;;;;;;21.60;40.20;;;;;;475036;249;2126;-39
2022/05/01 01:41:50;;;;;;;;;;;21.60;40.30;;;;;;474976;249;1095;-39
2022/05/01 01:43:52;;;;;;;;;;;21.60;40.20;;;;;;474573;249;1069;-39
2022/05/01 01:45:53;;;;;;;;;;;21.60;40.20;;;;;;474818;249;1434;-39
2022/05/01 01:47:54;;;;;;;;;;;21.60;40.20;;;;;;474560;249;1012;-39
2022/05/01 01:49:55;;;;;;;;;;;21.60;40.20;;;;;;474964;249;1054;-39
2022/05/01 01:51:57;;;;;;;;;;;21.70;40.20;;;;;;474710;249;1146;-39
2022/05/01 01:53:58;;;;;;;;;;;21.60;40.20;;;;;;474933;249;1072;-39
2022/05/01 01:55:59;;;;;;;;;;;21.60;40.20;;;;;;474920;249;1274;-39
2022/05/01 01:58:01;;;;;;;;;;;21.60;40.20;;;;;;474622;249;1033;-39
2022/05/01 02:00:02;;;;;;;;;;;21.60;40.20;;;;;;474560;249;2193;-39
2022/05/01 02:02:04;;;;;;;;;;;21.60;40.20;;;;;;474570;249;1155;-39
2022/05/01 02:04:05;;;;;;;;;;;21.60;40.20;;;;;;474962;249;1053;-39
2022/05/01 02:06:06;;;;;;;;;;;21.60;40.30;;;;;;474989;249;1052;-39
2022/05/01 02:08:08;;;;;;;;;;;21.60;40.20;;;;;;475034;249;1088;-39
2022/05/01 02:10:09;;;;;;;;;;;21.60;40.30;;;;;;474570;249;1051;-39
2022/05/01 02:12:10;;;;;;;;;;;21.50;40.30;;;;;;474521;249;1061;-39
2022/05/01 02:14:12;;;;;;;;;;;21.60;40.30;;;;;;475072;249;1134;-39
2022/05/01 02:16:13;;;;;;;;;;;21.60;40.30;;;;;;474799;249;1207;-39
2022/05/01 02:18:14;;;;;;;;;;;21.50;40.30;;;;;;474816;249;1077;-39
2022/05/01 02:20:15;;;;;;;;;;;21.60;40.30;;;;;;474570;249;2126;-39
2022/05/01 02:22:17;;;;;;;;;;;21.60;40.30;;;;;;474844;249;1062;-39
2022/05/01 02:24:18;;;;;;;;;;;21.60;40.20;;;;;;475030;249;1108;-39
2022/05/01 02:26:19;;;;;;;;;;;21.60;40.30;;;;;;474970;249;1090;-39
2022/05/01 02:28:21;;;;;;;;;;;21.60;40.30;;;;;;474608;249;1025;-39
2022/05/01 02:30:22;;;;;;;;;;;21.60;40.30;;;;;;475070;249;1072;-39
2022/05/01 02:32:24;;;;;;;;;;;21.60;40.30;;;;;;474998;249;1050;-39
2022/05/01 02:34:25;;;;;;;;;;;21.60;40.40;;;;;;474551;249;1075;-39
2022/05/01 02:36:26;;;;;;;;;;;21.60;40.30;;;;;;474537;249;1061;-39
2022/05/01 02:38:28;;;;;;;;;;;21.60;40.40;;;;;;475001;249;1076;-39
2022/05/01 02:40:29;;;;;;;;;;;21.60;40.40;;;;;;474760;249;2173;-39
2022/05/01 02:42:31;;;;;;;;;;;21.60;40.30;;;;;;474495;249;977;-39
2022/05/01 02:44:32;;;;;;;;;;;21.60;40.30;;;;;;475009;249;1082;-39
2022/05/01 02:46:33;;;;;;;;;;;21.60;40.30;;;;;;474721;249;1208;-39
2022/05/01 02:48:35;;;;;;;;;;;21.60;40.30;;;;;;474556;249;1170;-39
2022/05/01 02:50:36;;;;;;;;;;;21.60;40.30;;;;;;475010;249;1045;-39
2022/05/01 02:52:37;;;;;;;;;;;21.60;40.40;;;;;;474912;249;1028;-39
2022/05/01 02:54:38;;;;;;;;;;;21.60;40.30;;;;;;474593;249;1138;-39
2022/05/01 02:56:40;;;;;;;;;;;21.50;40.30;;;;;;475012;249;1101;-39
2022/05/01 02:58:41;;;;;;;;;;;21.60;40.30;;;;;;474807;249;1066;-39
2022/05/01 03:00:42;;;;;;;;;;;21.50;40.30;;;;;;474854;249;2193;-39
2022/05/01 03:02:44;;;;;;;;;;;21.60;40.30;;;;;;474599;249;1102;-39
2022/05/01 03:04:45;;;;;;;;;;;21.60;40.30;;;;;;474634;249;1013;-39
2022/05/01 03:06:47;;;;;;;;;;;21.60;40.30;;;;;;474742;249;1262;-39
2022/05/01 03:08:48;;;;;;;;;;;21.60;40.30;;;;;;475025;249;1031;-39
2022/05/01 03:10:49;;;;;;;;;;;21.60;40.20;;;;;;474540;249;1083;-39
2022/05/01 03:12:51;;;;;;;;;;;21.60;40.20;;;;;;474582;249;1146;-39
2022/05/01 03:14:52;;;;;;;;;;;21.60;40.30;;;;;;474816;249;1105;-39
2022/05/01 03:16:53;;;;;;;;;;;21.60;40.30;;;;;;474704;249;1327;-39
2022/05/01 03:23:33;;;;;;;;;;;21.60;40.40;;;;;;474985;250;1064;-39
2022/05/01 03:25:35;;;;;;;;;;;21.60;40.30;;;;;;475026;249;1040;-39
2022/05/01 03:27:36;;;;;;;;;;;21.60;40.30;;;;;;474669;249;1343;-39
2022/05/01 03:29:37;;;;;;;;;;;21.60;40.30;;;;;;474960;249;1335;-39
2022/05/01 03:31:38;;;;;;;;;;;21.60;40.30;;;;;;474761;249;1205;-39
2022/05/01 03:33:41;;;;;;;;;;;21.60;40.30;;;;;;474470;249;1163;-39
2022/05/01 03:35:41;;;;;;;;;;;21.70;40.20;;;;;;474890;250;2374;-39
2022/05/01 03:37:43;;;;;;;;;;;21.70;40.20;;;;;;474589;249;1214;-39
2022/05/01 03:39:44;;;;;;;;;;;21.70;40.20;;;;;;474881;249;1272;-39
2022/05/01 03:41:45;;;;;;;;;;;21.70;40.30;;;;;;474570;249;2134;-39
2022/05/01 03:43:47;;;;;;;;;;;21.60;40.30;;;;;;475013;249;1069;-39
2022/05/01 03:45:48;;;;;;;;;;;21.60;40.30;;;;;;474492;249;1063;-39
2022/05/01 03:47:49;;;;;;;;;;;21.60;40.20;;;;;;474654;249;1159;-39
2022/05/01 03:49:51;;;;;;;;;;;21.70;40.20;;;;;;475045;249;1051;-39
2022/05/01 03:51:52;;;;;;;;;;;21.60;40.20;;;;;;475003;249;989;-39
2022/05/01 03:53:53;;;;;;;;;;;21.60;40.20;;;;;;475027;249;1105;-39
2022/05/01 03:55:55;;;;;;;;;;;21.60;40.20;;;;;;474890;249;1335;-39
2022/05/01 03:57:57;;;;;;;;;;;21.60;40.30;;;;;;474980;249;1103;-39
2022/05/01 03:59:57;;;;;;;;;;;21.60;40.30;;;;;;474992;250;1870;-39
2022/05/01 04:01:59;;;;;;;;;;;21.60;40.30;;;;;;474588;249;2209;-39
2022/05/01 04:04:00;;;;;;;;;;;21.60;40.30;;;;;;474616;249;1082;-39
2022/05/01 04:06:02;;;;;;;;;;;21.70;40.30;;;;;;474575;249;1193;-39
2022/05/01 04:08:03;;;;;;;;;;;21.60;40.20;;;;;;474585;249;1048;-39
2022/05/01 04:10:04;;;;;;;;;;;21.60;40.20;;;;;;474746;249;1104;-39
2022/05/01 04:12:06;;;;;;;;;;;21.60;40.30;;;;;;474964;249;1223;-39
2022/05/01 04:14:07;;;;;;;;;;;21.60;40.20;;;;;;474573;249;1044;-39
2022/05/01 04:16:08;;;;;;;;;;;21.70;40.20;;;;;;474982;249;1235;-39
2022/05/01 04:18:10;;;;;;;;;;;21.60;40.20;;;;;;474671;249;1155;-39
2022/05/01 04:20:12;;;;;;;;;;;21.60;40.20;;;;;;475046;249;1062;-40
2022/05/01 04:22:12;;;;;;;;;;;21.60;40.30;;;;;;474953;249;2442;-39
2022/05/01 04:24:14;;;;;;;;;;;21.60;40.30;;;;;;475024;249;1087;-39
2022/05/01 04:26:15;;;;;;;;;;;21.60;40.20;;;;;;474942;249;1108;-39
2022/05/01 04:28:16;;;;;;;;;;;21.60;40.30;;;;;;474854;249;1027;-39
2022/05/01 04:30:18;;;;;;;;;;;21.60;40.30;;;;;;474951;249;1074;-39
2022/05/01 04:32:21;;;;;;;;;;;21.60;40.20;;;;;;474710;249;1195;-39
2022/05/01 04:34:20;;;;;;;;;;;21.70;40.30;;;;;;474426;250;2356;-39
2022/05/01 04:36:22;;;;;;;;;;;21.60;40.30;;;;;;474543;249;1036;-40
2022/05/01 04:38:23;;;;;;;;;;;21.70;40.20;;;;;;474997;249;1087;-39
2022/05/01 04:40:25;;;;;;;;;;;21.60;40.20;;;;;;475003;249;1077;-39
2022/05/01 04:42:27;;;;;;;;;;;21.70;40.20;;;;;;474950;249;2200;-39
2022/05/01 04:44:27;;;;;;;;;;;21.70;40.20;;;;;;475013;249;2362;-39
2022/05/01 04:46:28;;;;;;;;;;;21.70;40.30;;;;;;474995;249;1263;-39
2022/05/01 04:48:30;;;;;;;;;;;21.60;40.20;;;;;;474609;249;1176;-39
2022/05/01 04:50:31;;;;;;;;;;;21.70;40.30;;;;;;474945;249;1207;-39
2022/05/01 04:52:32;;;;;;;;;;;21.70;40.20;;;;;;474597;249;1209;-39
2022/05/01 04:54:34;;;;;;;;;;;21.60;40.20;;;;;;475040;249;1010;-39
2022/05/01 04:58:54;;;;;;;;;;;21.60;40.20;;;;;;474970;250;1147;-39
2022/05/01 05:00:56;;;;;;;;;;;21.60;40.30;;;;;;474494;249;2209;-39
2022/05/01 05:02:57;;;;;;;;;;;21.60;40.20;;;;;;474501;249;1183;-39
2022/05/01 05:04:58;;;;;;;;;;;21.70;40.30;;;;;;474500;249;1100;-39
2022/05/01 05:07:00;;;;;;;;;;;21.70;40.20;;;;;;474446;249;1140;-39
2022/05/01 05:11:20;;;;;;;;;;;21.70;40.30;;;;;;474576;250;1189;-39
2022/05/01 05:13:24;;;;;;;;;;;21.70;40.20;;;;;;474528;249;1188;-39
2022/05/01 05:15:24;;;;;;;;;;;21.70;40.20;;;;;;474974;250;2313;-39
2022/05/01 05:17:25;;;;;;;;;;;21.60;40.20;;;;;;474888;249;1141;-39
2022/05/01 05:19:26;;;;;;;;;;;21.70;40.30;;;;;;475043;249;1037;-39
2022/05/01 05:21:28;;;;;;;;;;;21.60;40.30;;;;;;474963;249;2193;-39
2022/05/01 05:23:29;;;;;;;;;;;21.60;40.20;;;;;;475045;249;1100;-39
2022/05/01 05:25:31;;;;;;;;;;;21.70;40.20;;;;;;474617;249;1010;-39
2022/05/01 05:27:32;;;;;;;;;;;21.70;40.20;;;;;;475019;249;1104;-39
2022/05/01 05:29:33;;;;;;;;;;;21.70;40.20;;;;;;475041;249;1091;-39
2022/05/01 05:31:35;;;;;;;;;;;21.70;40.20;;;;;;474963;249;1133;-39
2022/05/01 05:33:36;;;;;;;;;;;21.70;40.20;;;;;;474734;249;1102;-39
2022/05/01 05:35:37;;;;;;;;;;;21.70;40.20;;;;;;475039;249;1089;-39
2022/05/01 05:37:39;;;;;;;;;;;21.60;40.20;;;;;;475041;249;1129;-39
2022/05/01 05:39:40;;;;;;;;;;;21.60;40.20;;;;;;475036;249;1304;-39
2022/05/01 05:41:41;;;;;;;;;;;21.60;40.20;;;;;;474999;249;2129;-39
2022/05/01 05:43:43;;;;;;;;;;;21.60;40.30;;;;;;474643;249;1063;-39
2022/05/01 05:45:45;;;;;;;;;;;21.60;40.30;;;;;;475067;249;1078;-39
2022/05/01 05:47:45;;;;;;;;;;;21.70;40.20;;;;;;474668;249;2239;-39
2022/05/01 05:49:47;;;;;;;;;;;21.60;40.30;;;;;;475069;249;1150;-39
2022/05/01 05:51:48;;;;;;;;;;;21.60;40.30;;;;;;474889;249;1374;-39
2022/05/01 05:53:49;;;;;;;;;;;21.70;40.30;;;;;;475071;249;1074;-39
2022/05/01 05:55:51;;;;;;;;;;;21.60;40.20;;;;;;475028;249;1147;-39
2022/05/01 05:57:53;;;;;;;;;;;21.60;40.30;;;;;;474570;249;1310;-39
2022/05/01 05:59:53;;;;;;;;;;;21.60;40.30;;;;;;474982;249;2200;-39
2022/05/01 06:01:54;;;;;;;;;;;21.60;40.30;;;;;;474593;249;2130;-39
2022/05/01 06:03:56;;;;;;;;;;;21.60;40.30;;;;;;474507;249;1233;-39
2022/05/01 06:05:57;;;;;;;;;;;21.60;40.30;;;;;;474672;249;1364;-39
2022/05/01 06:07:58;;;;;;;;;;;21.60;40.30;;;;;;474655;249;1058;-39
2022/05/01 06:10:00;;;;;;;;;;;21.70;40.30;;;;;;475005;249;1262;-39
2022/05/01 06:12:01;;;;;;;;;;;21.60;40.30;;;;;;474597;249;1029;-39
2022/05/01 06:14:02;;;;;;;;;;;21.60;40.30;;;;;;474625;249;1096;-39
2022/05/01 06:16:04;;;;;;;;;;;21.60;40.40;;;;;;475006;249;1304;-39
2022/05/01 06:18:05;;;;;;;;;;;21.60;40.50;;;;;;474969;249;1351;-39
2022/05/01 06:20:06;;;;;;;;;;;21.60;40.40;;;;;;474588;249;1110;-39
2022/05/01 06:22:08;;;;;;;;;;;21.60;40.40;;;;;;474553;249;2134;-39
2022/05/01 06:24:09;;;;;;;;;;;21.60;40.40;;;;;;475031;249;1097;-39
2022/05/01 06:26:10;;;;;;;;;;;21.60;40.40;;;;;;474936;249;1397;-39
2022/05/01 06:28:12;;;;;;;;;;;21.60;40.40;;;;;;474983;249;1059;-39
2022/05/01 06:30:13;;;;;;;;;;;21.60;40.50;;;;;;474988;249;1029;-39
2022/05/01 06:32:15;;;;;;;;;;;21.60;40.50;;;;;;474744;249;1156;-39
2022/05/01 06:34:16;;;;;;;;;;;21.50;40.40;;;;;;476252;249;2198;-39
2022/05/01 06:36:17;;;;;;;;;;;21.60;40.40;;;;;;476379;248;1055;-39
2022/05/01 06:38:19;;;;;;;;;;;21.60;40.40;;;;;;476446;248;1247;-39
2022/05/01 06:40:20;;;;;;;;;;;21.60;40.40;;;;;;476889;248;995;-39
2022/05/01 06:42:21;;;;;;;;;;;21.60;40.30;;;;;;476406;248;2204;-39
2022/05/01 06:44:23;;;;;;;;;;;21.70;40.30;;;;;;476877;248;996;-39
2022/05/01 06:46:24;;;;;;;;;;;21.60;40.40;;;;;;476765;248;981;-39
2022/05/01 06:48:25;;;;;;;;;;;21.60;40.50;;;;;;476751;248;1222;-39
2022/05/01 06:50:27;;;;;;;;;;;21.60;40.50;;;;;;476851;248;1048;-39
2022/05/01 06:52:28;;;;;;;;;;;21.60;40.40;;;;;;476374;248;1209;-39
2022/05/01 06:54:29;;;;;;;;;;;21.60;40.40;;;;;;476896;248;1028;-39
2022/05/01 06:56:31;;;;;;;;;;;21.60;40.40;;;;;;476421;248;1231;-39
2022/05/01 06:58:33;;;;;;;;;;;21.60;40.40;;;;;;476858;249;1061;-39
2022/05/01 07:00:33;;;;;;;;;;;21.70;40.40;;;;;;476785;249;2161;-39
2022/05/01 07:02:35;;;;;;;;;;;21.60;40.40;;;;;;476502;248;2184;-39
2022/05/01 07:04:36;;;;;;;;;;;21.70;40.40;;;;;;476373;248;1316;-39
2022/05/01 07:06:37;;;;;;;;;;;21.70;40.40;;;;;;476603;248;1030;-39
2022/05/01 07:08:39;;;;;;;;;;;21.60;40.40;;;;;;476424;248;1007;-39
2022/05/01 07:10:40;;;;;;;;;;;21.60;40.40;;;;;;476858;248;997;-39
2022/05/01 07:12:41;;;;;;;;;;;21.60;40.40;;;;;;476396;248;1036;-39
2022/05/01 07:14:44;;;;;;;;;;;21.60;40.50;;;;;;476880;248;1077;-39
2022/05/01 07:16:45;;;;;;;;;;;21.60;40.50;;;;;;476356;248;2228;-39
2022/05/01 07:18:46;;;;;;;;;;;21.60;40.50;;;;;;476804;248;1203;-39
2022/05/01 07:20:47;;;;;;;;;;;21.60;40.50;;;;;;476900;248;1048;-39
2022/05/01 07:22:48;;;;;;;;;;;21.70;40.40;;;;;;476430;248;2192;-39
2022/05/01 07:24:50;;;;;;;;;;;21.60;40.40;;;;;;476388;248;1105;-39
2022/05/01 07:26:51;;;;;;;;;;;21.60;40.50;;;;;;476325;248;1327;-39
2022/05/01 07:28:52;;;;;;;;;;;21.60;40.50;;;;;;476830;248;1024;-39
2022/05/01 07:30:54;;;;;;;;;;;21.60;40.40;;;;;;476762;248;1248;-39
2022/05/01 07:32:55;;;;;;;;;;;21.60;40.50;;;;;;476780;248;1239;-39
2022/05/01 07:34:56;;;;;;;;;;;21.60;40.50;;;;;;476569;249;1465;-39
2022/05/01 07:36:58;;;;;;;;;;;21.60;40.50;;;;;;476413;248;1709;-39
2022/05/01 07:38:59;;;;;;;;;;;21.60;40.50;;;;;;476433;248;1100;-39
2022/05/01 07:41:00;;;;;;;;;;;21.60;40.50;;;;;;476330;248;1241;-39
2022/05/01 07:43:02;;;;;;;;;;;21.60;40.50;;;;;;476758;249;2192;-39
2022/05/01 07:45:03;;;;;;;;;;;21.60;40.50;;;;;;476449;248;1042;-39
2022/05/01 07:47:04;;;;;;;;;;;21.50;40.60;;;;;;476854;248;1063;-39
2022/05/01 07:49:06;;;;;;;;;;;21.50;40.60;;;;;;476811;248;1185;-39
2022/05/01 07:51:08;;;;;;;;;;;21.50;40.60;;;;;;476871;248;990;-39
2022/05/01 07:53:09;;;;;;;;;;;21.60;40.60;;;;;;476433;248;1187;-39
2022/05/01 07:55:10;;;;;;;;;;;21.60;40.50;;;;;;476887;248;1205;-39
2022/05/01 07:57:12;;;;;;;;;;;21.60;40.50;;;;;;476869;248;1045;-39
2022/05/01 07:59:14;;;;;;;;;;;21.60;40.50;;;;;;476403;248;1191;-39
2022/05/01 08:01:14;;;;;;;;;;;21.70;40.40;;;;;;476462;249;1483;-39
2022/05/01 08:05:35;;;;;;;;;;;21.60;40.50;;;;;;476553;249;1331;-39
2022/05/01 08:07:37;;;;;;;;;;;21.60;40.50;;;;;;476417;248;1033;-39
2022/05/01 08:09:37;;;;;;;;;;;21.70;40.50;;;;;;476826;249;2333;-39
2022/05/01 08:11:39;;;;;;;;;;;21.60;40.50;;;;;;476668;249;1242;-39
2022/05/01 08:13:40;;;;;;;;;;;21.60;40.60;;;;;;476410;248;1261;-39
2022/05/01 08:15:41;;;;;;;;;;;21.60;40.50;;;;;;476538;247;1147;-39
2022/05/01 08:17:43;;;;;;;;;;;21.60;40.60;;;;;;476435;248;1024;-39
2022/05/01 08:22:04;;;;;;;;;;;21.60;40.60;;;;;;476383;250;2134;-39
2022/05/01 08:24:04;;;;;;;;;;;21.50;40.60;;;;;;476618;248;1398;-39
2022/05/01 08:26:06;;;;;;;;;;;21.60;40.60;;;;;;476446;248;1066;-39
2022/05/01 08:28:07;;;;;;;;;;;21.60;40.60;;;;;;476568;249;1137;-39
2022/05/01 08:30:08;;;;;;;;;;;21.60;40.60;;;;;;476816;248;1092;-39
2022/05/01 08:32:10;;;;;;;;;;;21.50;40.60;;;;;;476458;248;1053;-39
2022/05/01 08:34:11;;;;;;;;;;;21.60;40.70;;;;;;476417;248;1059;-39
2022/05/01 08:36:12;;;;;;;;;;;21.60;40.60;;;;;;476464;248;1196;-39
2022/05/01 08:38:14;;;;;;;;;;;21.60;40.60;;;;;;476875;248;1028;-39
2022/05/01 08:40:15;;;;;;;;;;;21.60;40.60;;;;;;476558;248;1102;-39
2022/05/01 08:42:17;;;;;;;;;;;21.50;40.70;;;;;;476358;248;2132;-39
2022/05/01 08:44:18;;;;;;;;;;;21.60;40.60;;;;;;476892;248;1099;-39
2022/05/01 08:46:19;;;;;;;;;;;21.50;40.70;;;;;;476342;248;1125;-39
2022/05/01 08:48:21;;;;;;;;;;;21.60;40.70;;;;;;476336;248;1073;-39
2022/05/01 08:50:22;;;;;;;;;;;21.60;40.60;;;;;;476728;248;1293;-39
2022/05/01 08:52:23;;;;;;;;;;;21.60;40.70;;;;;;476484;248;1139;-39
2022/05/01 08:54:25;;;;;;;;;;;21.60;40.70;;;;;;476892;248;1059;-39
2022/05/01 08:56:26;;;;;;;;;;;21.60;40.70;;;;;;476781;248;1433;-39
2022/05/01 08:58:27;;;;;;;;;;;21.50;40.70;;;;;;476791;248;1105;-39
2022/05/01 09:00:29;;;;;;;;;;;21.60;40.60;;;;;;476851;248;1065;-39
2022/05/01 09:02:30;;;;;;;;;;;21.60;40.60;;;;;;476405;248;2140;-39
2022/05/01 09:04:31;;;;;;;;;;;21.60;40.70;;;;;;476794;248;1051;-39
2022/05/01 09:06:32;;;;;;;;;;;21.60;40.60;;;;;;476309;248;1340;-39
2022/05/01 09:08:34;;;;;;;;;;;21.50;40.60;;;;;;476459;248;1069;-39
2022/05/01 09:10:35;;;;;;;;;;;21.50;40.70;;;;;;476809;248;1406;-39
2022/05/01 09:12:52;;;;;;;;;;;21.60;40.70;;;;;;476659;248;1252;-39
2022/05/01 09:14:53;;;;;;;;;;;21.60;40.70;;;;;;476417;249;2628;-39
2022/05/01 09:16:54;;;;;;;;;;;21.50;40.70;;;;;;476400;248;1396;-39
2022/05/01 09:18:55;;;;;;;;;;;21.50;40.70;;;;;;476846;248;1079;-39
2022/05/01 09:20:57;;;;;;;;;;;21.50;40.70;;;;;;476549;248;1301;-39
2022/05/01 09:22:58;;;;;;;;;;;21.60;40.70;;;;;;476575;248;2133;-39
2022/05/01 09:24:59;;;;;;;;;;;21.60;40.70;;;;;;476849;248;1110;-39
2022/05/01 09:27:01;;;;;;;;;;;21.60;40.70;;;;;;476697;248;1184;-39
2022/05/01 09:29:02;;;;;;;;;;;21.60;40.70;;;;;;476431;248;1093;-39
2022/05/01 09:31:03;;;;;;;;;;;21.60;40.80;;;;;;476395;248;1321;-39
2022/05/01 09:33:05;;;;;;;;;;;21.50;40.70;;;;;;476674;248;1218;-39
2022/05/01 09:35:06;;;;;;;;;;;21.60;40.80;;;;;;476727;249;1045;-39
2022/05/01 09:37:08;;;;;;;;;;;21.50;40.70;;;;;;476451;248;1228;-39
2022/05/01 09:39:09;;;;;;;;;;;21.60;40.70;;;;;;476874;248;1090;-39
2022/05/01 09:41:10;;;;;;;;;;;21.60;40.80;;;;;;476830;248;1376;-39
2022/05/01 09:43:12;;;;;;;;;;;21.60;40.70;;;;;;476793;248;2136;-39
2022/05/01 09:45:14;;;;;;;;;;;21.60;40.70;;;;;;476863;248;1047;-39
2022/05/01 09:47:14;;;;;;;;;;;21.60;40.70;;;;;;476311;250;2467;-39
2022/05/01 09:49:16;;;;;;;;;;;21.60;40.70;;;;;;476423;248;1094;-39
2022/05/01 09:51:17;;;;;;;;;;;21.60;40.60;;;;;;476704;248;1283;-39
2022/05/01 09:53:19;;;;;;;;;;;21.60;40.60;;;;;;476855;248;1222;-39
2022/05/01 09:55:20;;;;;;;;;;;21.60;40.60;;;;;;476716;248;2256;-39
2022/05/01 09:57:21;;;;;;;;;;;21.60;40.60;;;;;;476779;248;1071;-39
2022/05/01 09:59:22;;;;;;;;;;;21.60;40.60;;;;;;476874;248;1090;-39
2022/05/01 10:01:23;;;;;;;;;;;21.60;40.60;;;;;;476857;248;1052;-39
2022/05/01 10:03:25;;;;;;;;;;;21.60;40.70;;;;;;476776;248;2219;-39
2022/05/01 10:05:26;;;;;;;;;;;21.60;40.70;;;;;;476467;248;1067;-39
2022/05/01 10:07:27;;;;;;;;;;;21.60;40.70;;;;;;476429;248;1319;-39
2022/05/01 10:09:29;;;;;;;;;;;21.60;40.60;;;;;;476859;248;1076;-39
2022/05/01 10:11:31;;;;;;;;;;;21.60;40.60;;;;;;476848;249;1053;-39
2022/05/01 10:13:32;;;;;;;;;;;21.60;40.70;;;;;;476490;248;1210;-39
2022/05/01 10:15:33;;;;;;;;;;;21.60;40.60;;;;;;476452;248;1180;-39
2022/05/01 10:17:34;;;;;;;;;;;21.60;40.60;;;;;;476862;248;1082;-39
2022/05/01 10:19:36;;;;;;;;;;;21.60;40.60;;;;;;476873;248;1106;-39
2022/05/01 10:21:37;;;;;;;;;;;21.60;40.60;;;;;;476436;248;1196;-39
2022/05/01 10:23:39;;;;;;;;;;;21.60;40.60;;;;;;476884;248;2268;-39
2022/05/01 10:25:40;;;;;;;;;;;21.50;40.60;;;;;;476781;248;2147;-39
2022/05/01 10:27:41;;;;;;;;;;;21.60;40.60;;;;;;476893;248;1074;-39
2022/05/01 10:32:20;;;;;;;;;;;21.60;40.60;;;;;;476930;248;1070;-39
2022/05/01 10:34:04;;;;;;;;;;;21.60;40.60;;;;;;476784;249;1816;-39
2022/05/01 10:36:06;;;;;;;;;;;21.60;40.60;;;;;;476829;248;2318;-39
2022/05/01 10:38:07;;;;;;;;;;;21.60;40.60;;;;;;476503;248;1176;-39
2022/05/01 10:40:08;;;;;;;;;;;21.60;40.60;;;;;;476460;248;1075;-39
2022/05/01 10:42:10;;;;;;;;;;;21.60;40.60;;;;;;476809;248;1386;-39
2022/05/01 10:44:12;;;;;;;;;;;21.50;40.60;;;;;;476838;248;2137;-39
2022/05/01 10:46:12;;;;;;;;;;;21.60;40.60;;;;;;476356;248;2465;-39
2022/05/01 10:48:17;;;;;;;;;;;21.60;40.70;;;;;;476453;248;985;-39
2022/05/01 10:50:15;;;;;;;;;;;21.60;40.60;;;;;;476682;248;2046;-39
2022/05/01 10:52:16;;;;;;;;;;;21.60;40.70;;;;;;476620;248;1265;-39
2022/05/01 10:54:18;;;;;;;;;;;21.60;40.70;;;;;;476879;248;1072;-39
2022/05/01 10:56:19;;;;;;;;;;;21.60;40.70;;;;;;476762;248;954;-39
2022/05/01 10:58:21;;;;;;;;;;;21.50;40.60;;;;;;476799;248;2332;-39
2022/05/01 11:00:22;;;;;;;;;;;21.60;40.60;;;;;;476815;248;1189;-39
2022/05/01 11:02:24;;;;;;;;;;;21.60;40.60;;;;;;476424;248;1083;-39
2022/05/01 11:04:25;;;;;;;;;;;21.60;40.60;;;;;;476843;248;2414;-39
2022/05/01 11:06:26;;;;;;;;;;;21.60;40.60;;;;;;476858;248;1256;-39
2022/05/01 11:08:28;;;;;;;;;;;21.60;40.60;;;;;;476502;248;1221;-39
2022/05/01 11:10:29;;;;;;;;;;;21.60;40.60;;;;;;476612;249;1421;-39
2022/05/01 11:12:32;;;;;;;;;;;21.60;40.60;;;;;;476664;248;1153;-39
2022/05/01 11:14:32;;;;;;;;;;;21.60;40.60;;;;;;476491;248;2211;-39
2022/05/01 11:16:33;;;;;;;;;;;21.60;40.60;;;;;;476830;248;1063;-39
2022/05/01 11:18:34;;;;;;;;;;;21.60;40.60;;;;;;476499;248;1058;-39
2022/05/01 11:20:36;;;;;;;;;;;21.60;40.60;;;;;;476394;248;1084;-39
2022/05/01 11:22:37;;;;;;;;;;;21.60;40.60;;;;;;476709;249;1177;-39
2022/05/01 11:24:38;;;;;;;;;;;21.60;40.70;;;;;;476899;248;2117;-39
2022/05/01 11:26:40;;;;;;;;;;;21.60;40.60;;;;;;476708;248;1256;-39
2022/05/01 11:28:41;;;;;;;;;;;21.60;40.60;;;;;;476861;248;1095;-39
2022/05/01 11:30:42;;;;;;;;;;;21.60;40.50;;;;;;476771;248;1188;-39
2022/05/01 11:32:44;;;;;;;;;;;21.70;40.50;;;;;;476562;248;1180;-39
2022/05/01 11:34:45;;;;;;;;;;;21.60;40.50;;;;;;476781;248;1005;-39
2022/05/01 11:36:47;;;;;;;;;;;21.60;40.60;;;;;;476345;248;1144;-39
2022/05/01 11:38:48;;;;;;;;;;;21.60;40.60;;;;;;476508;248;1222;-39
2022/05/01 11:40:49;;;;;;;;;;;21.60;40.60;;;;;;476871;248;1158;-39
2022/05/01 11:42:50;;;;;;;;;;;21.50;40.60;;;;;;476499;248;2243;-39
2022/05/01 11:44:52;;;;;;;;;;;21.60;40.60;;;;;;476559;248;2185;-39
2022/05/01 11:46:53;;;;;;;;;;;21.60;40.50;;;;;;476820;248;1078;-39
2022/05/01 11:48:54;;;;;;;;;;;21.60;40.60;;;;;;476694;248;1065;-39
2022/05/01 11:50:58;;;;;;;;;;;21.60;40.70;;;;;;476585;249;1059;-39
2022/05/01 11:52:57;;;;;;;;;;;21.50;40.70;;;;;;476338;250;1420;-39
2022/05/01 11:54:58;;;;;;;;;;;21.60;40.70;;;;;;476466;248;1057;-39
2022/05/01 12:04:18;;;;;;;;;;;21.60;40.60;;;;;;465400;254;2205;-39
2022/05/01 12:06:19;;;;;;;;;;;21.60;40.50;;;;;;462607;256;1129;-39
2022/05/01 12:08:20;;;;;;;;;;;21.60;40.50;;;;;;476535;250;1206;-39
2022/05/01 12:10:22;;;;;;;;;;;21.60;40.60;;;;;;476368;248;1064;-39
2022/05/01 12:12:23;;;;;;;;;;;21.60;40.70;;;;;;476816;248;1286;-39
2022/05/01 12:14:25;;;;;;;;;;;21.60;40.60;;;;;;476716;248;1122;-39
2022/05/01 12:16:26;;;;;;;;;;;21.60;40.60;;;;;;476758;248;1294;-39
2022/05/01 12:18:27;;;;;;;;;;;21.60;40.60;;;;;;476390;248;1064;-39
2022/05/01 12:20:28;;;;;;;;;;;21.60;40.60;;;;;;476362;248;1106;-39
2022/05/01 12:22:37;;;;;;;;;;;21.60;40.60;;;;;;476816;248;1123;-40
2022/05/01 12:24:33;;;;;;;;;;;21.60;40.60;;;;;;476180;249;2360;-39